sensor_id;sensor_type;location;lat;lon;timestamp;pressure;altitude;pressure_sealevel;temperature;humidity
73245;BME280;61460;41.158;-73.238;2023-02-26T00:01:03;102245.42;;;23.37;30.09
73245;BME280;61460;41.158;-73.238;2023-02-26T00:03:32;102249.91;;;23.45;29.78
73245;BME280;61460;41.158;-73.238;2023-02-26T00:06:04;102243.06;;;23.53;29.64
73245;BME280;61460;41.158;-73.238;2023-02-26T00:08:34;102237.89;;;23.67;29.82
73245;BME280;61460;41.158;-73.238;2023-02-26T00:11:06;102235.13;;;23.73;29.77
73245;BME280;61460;41.158;-73.238;2023-02-26T00:13:37;102229.67;;;23.75;30.00
73245;BME280;61460;41.158;-73.238;2023-02-26T00:16:14;102234.60;;;23.70;29.68
73245;BME280;61460;41.158;-73.238;2023-02-26T00:18:37;102236.31;;;23.90;29.60
73245;BME280;61460;41.158;-73.238;2023-02-26T00:21:08;102252.67;;;24.03;29.43
73245;BME280;61460;41.158;-73.238;2023-02-26T00:23:38;102264.91;;;24.00;29.55
73245;BME280;61460;41.158;-73.238;2023-02-26T00:26:09;102269.77;;;24.05;29.73
73245;BME280;61460;41.158;-73.238;2023-02-26T00:28:40;102263.61;;;24.04;29.84
73245;BME280;61460;41.158;-73.238;2023-02-26T00:31:12;102246.66;;;23.94;29.92
73245;BME280;61460;41.158;-73.238;2023-02-26T00:33:42;102246.53;;;23.95;29.79
73245;BME280;61460;41.158;-73.238;2023-02-26T00:36:19;102250.63;;;23.89;29.92
73245;BME280;61460;41.158;-73.238;2023-02-26T00:38:44;102243.42;;;24.25;29.55
73245;BME280;61460;41.158;-73.238;2023-02-26T00:41:13;102238.66;;;24.10;29.74
73245;BME280;61460;41.158;-73.238;2023-02-26T00:43:44;102230.20;;;24.12;29.94
73245;BME280;61460;41.158;-73.238;2023-02-26T00:46:20;102215.31;;;24.09;30.15
73245;BME280;61460;41.158;-73.238;2023-02-26T00:48:51;102209.03;;;24.16;30.18
73245;BME280;61460;41.158;-73.238;2023-02-26T00:51:20;102210.17;;;23.93;30.41
73245;BME280;61460;41.158;-73.238;2023-02-26T00:53:51;102206.08;;;23.60;31.14
73245;BME280;61460;41.158;-73.238;2023-02-26T00:56:16;102192.69;;;23.78;30.69
73245;BME280;61460;41.158;-73.238;2023-02-26T00:58:46;102184.80;;;23.85;30.76
73245;BME280;61460;41.158;-73.238;2023-02-26T01:01:17;102192.32;;;23.76;30.97
73245;BME280;61460;41.158;-73.238;2023-02-26T01:03:48;102192.68;;;23.90;30.94
73245;BME280;61460;41.158;-73.238;2023-02-26T01:06:20;102198.39;;;24.03;30.80
73245;BME280;61460;41.158;-73.238;2023-02-26T01:08:56;102195.51;;;24.02;30.96
73245;BME280;61460;41.158;-73.238;2023-02-26T01:11:19;102193.34;;;24.06;30.96
73245;BME280;61460;41.158;-73.238;2023-02-26T01:13:50;102195.84;;;24.05;31.06
73245;BME280;61460;41.158;-73.238;2023-02-26T01:16:26;102187.82;;;24.00;31.07
73245;BME280;61460;41.158;-73.238;2023-02-26T01:18:57;102185.67;;;23.83;31.28
73245;BME280;61460;41.158;-73.238;2023-02-26T01:21:27;102189.77;;;23.78;31.50
73245;BME280;61460;41.158;-73.238;2023-02-26T01:23:52;102188.29;;;24.04;31.26
73245;BME280;61460;41.158;-73.238;2023-02-26T01:26:25;102189.19;;;23.87;31.52
73245;BME280;61460;41.158;-73.238;2023-02-26T01:28:54;102189.16;;;23.96;31.48
73245;BME280;61460;41.158;-73.238;2023-02-26T01:31:33;102190.74;;;23.98;31.52
73245;BME280;61460;41.158;-73.238;2023-02-26T01:33:57;102178.04;;;24.01;31.59
73245;BME280;61460;41.158;-73.238;2023-02-26T01:36:30;102172.68;;;24.06;31.48
73245;BME280;61460;41.158;-73.238;2023-02-26T01:38:58;102177.20;;;24.10;31.40
73245;BME280;61460;41.158;-73.238;2023-02-26T01:41:30;102177.35;;;23.86;31.83
73245;BME280;61460;41.158;-73.238;2023-02-26T01:44:02;102173.26;;;23.86;31.69
73245;BME280;61460;41.158;-73.238;2023-02-26T01:46:33;102172.75;;;23.85;31.75
73245;BME280;61460;41.158;-73.238;2023-02-26T01:48:58;102182.34;;;23.93;31.95
73245;BME280;61460;41.158;-73.238;2023-02-26T01:53:58;102179.08;;;23.93;32.07
73245;BME280;61460;41.158;-73.238;2023-02-26T01:56:28;102177.79;;;23.87;32.38
73245;BME280;61460;41.158;-73.238;2023-02-26T01:58:59;102177.96;;;23.82;32.23
73245;BME280;61460;41.158;-73.238;2023-02-26T02:01:29;102173.50;;;23.56;32.47
73245;BME280;61460;41.158;-73.238;2023-02-26T02:03:59;102182.11;;;23.40;32.41
73245;BME280;61460;41.158;-73.238;2023-02-26T02:06:30;102191.69;;;23.47;32.20
73245;BME280;61460;41.158;-73.238;2023-02-26T02:09:01;102191.80;;;23.54;32.15
73245;BME280;61460;41.158;-73.238;2023-02-26T02:11:31;102184.56;;;23.49;32.18
73245;BME280;61460;41.158;-73.238;2023-02-26T02:14:10;102185.19;;;23.47;32.10
73245;BME280;61460;41.158;-73.238;2023-02-26T02:16:38;102177.25;;;23.49;32.03
73245;BME280;61460;41.158;-73.238;2023-02-26T02:24:10;102171.26;;;23.20;31.75
73245;BME280;61460;41.158;-73.238;2023-02-26T02:26:43;102171.03;;;23.26;31.86
73245;BME280;61460;41.158;-73.238;2023-02-26T02:31:37;102169.40;;;23.26;31.82
73245;BME280;61460;41.158;-73.238;2023-02-26T02:34:11;102161.19;;;23.26;31.71
73245;BME280;61460;41.158;-73.238;2023-02-26T02:36:38;102156.38;;;23.13;31.82
73245;BME280;61460;41.158;-73.238;2023-02-26T02:39:08;102150.27;;;22.78;31.94
73245;BME280;61460;41.158;-73.238;2023-02-26T02:41:43;102151.00;;;22.83;31.67
73245;BME280;61460;41.158;-73.238;2023-02-26T02:44:12;102151.29;;;23.03;31.52
73245;BME280;61460;41.158;-73.238;2023-02-26T02:46:39;102148.77;;;23.05;31.50
73245;BME280;61460;41.158;-73.238;2023-02-26T02:49:12;102130.94;;;23.08;31.44
73245;BME280;61460;41.158;-73.238;2023-02-26T02:51:41;102122.99;;;23.09;31.41
73245;BME280;61460;41.158;-73.238;2023-02-26T02:54:12;102117.72;;;22.90;31.47
73245;BME280;61460;41.158;-73.238;2023-02-26T02:56:42;102108.53;;;22.71;31.29
73245;BME280;61460;41.158;-73.238;2023-02-26T02:59:15;102107.36;;;23.01;30.88
73245;BME280;61460;41.158;-73.238;2023-02-26T03:01:40;102106.13;;;23.06;30.98
73245;BME280;61460;41.158;-73.238;2023-02-26T03:04:11;102106.45;;;23.12;31.19
73245;BME280;61460;41.158;-73.238;2023-02-26T03:06:44;102107.34;;;23.16;31.21
73245;BME280;61460;41.158;-73.238;2023-02-26T03:09:12;102109.40;;;23.09;31.14
73245;BME280;61460;41.158;-73.238;2023-02-26T03:11:41;102112.69;;;22.88;31.18
73245;BME280;61460;41.158;-73.238;2023-02-26T03:14:12;102103.50;;;23.12;30.65
73245;BME280;61460;41.158;-73.238;2023-02-26T03:16:53;102103.93;;;23.40;30.52
73245;BME280;61460;41.158;-73.238;2023-02-26T03:19:18;102091.61;;;23.39;30.44
73245;BME280;61460;41.158;-73.238;2023-02-26T03:21:48;102092.02;;;23.44;30.48
73245;BME280;61460;41.158;-73.238;2023-02-26T03:24:17;102087.80;;;23.48;30.56
73245;BME280;61460;41.158;-73.238;2023-02-26T03:26:47;102076.34;;;23.20;31.09
73245;BME280;61460;41.158;-73.238;2023-02-26T03:29:19;102076.97;;;23.31;30.49
73245;BME280;61460;41.158;-73.238;2023-02-26T03:31:51;102081.24;;;23.24;30.34
73245;BME280;61460;41.158;-73.238;2023-02-26T03:34:18;102080.37;;;23.29;30.16
73245;BME280;61460;41.158;-73.238;2023-02-26T03:36:47;102073.38;;;23.34;30.26
73245;BME280;61460;41.158;-73.238;2023-02-26T03:39:18;102067.22;;;23.40;30.37
73245;BME280;61460;41.158;-73.238;2023-02-26T03:41:50;102069.84;;;23.42;30.48
73245;BME280;61460;41.158;-73.238;2023-02-26T03:44:19;102064.94;;;23.24;30.39
73245;BME280;61460;41.158;-73.238;2023-02-26T03:46:51;102057.23;;;23.20;29.88
73245;BME280;61460;41.158;-73.238;2023-02-26T03:49:23;102058.80;;;23.04;29.94
73245;BME280;61460;41.158;-73.238;2023-02-26T03:51:50;102069.71;;;23.19;29.76
73245;BME280;61460;41.158;-73.238;2023-02-26T03:54:21;102068.14;;;23.34;30.07
73245;BME280;61460;41.158;-73.238;2023-02-26T03:56:52;102064.95;;;23.27;30.19
73245;BME280;61460;41.158;-73.238;2023-02-26T03:59:21;102056.15;;;23.29;30.41
73245;BME280;61460;41.158;-73.238;2023-02-26T04:01:55;102055.20;;;22.91;30.20
73245;BME280;61460;41.158;-73.238;2023-02-26T04:04:26;102050.48;;;22.85;29.89
73245;BME280;61460;41.158;-73.238;2023-02-26T04:06:53;102054.72;;;22.96;29.63
73245;BME280;61460;41.158;-73.238;2023-02-26T04:09:24;102046.23;;;23.03;29.73
73245;BME280;61460;41.158;-73.238;2023-02-26T04:11:55;102031.95;;;22.95;30.05
73245;BME280;61460;41.158;-73.238;2023-02-26T04:14:25;102042.53;;;23.10;30.66
73245;BME280;61460;41.158;-73.238;2023-02-26T04:16:55;102044.33;;;23.13;30.53
73245;BME280;61460;41.158;-73.238;2023-02-26T04:19:26;102039.16;;;22.90;30.09
73245;BME280;61460;41.158;-73.238;2023-02-26T04:21:58;102036.29;;;22.95;29.52
73245;BME280;61460;41.158;-73.238;2023-02-26T04:24:27;102024.03;;;22.80;29.47
73245;BME280;61460;41.158;-73.238;2023-02-26T04:26:58;102019.18;;;22.88;29.33
73245;BME280;61460;41.158;-73.238;2023-02-26T04:29:29;102006.31;;;22.98;29.71
73245;BME280;61460;41.158;-73.238;2023-02-26T04:31:59;102001.46;;;22.93;29.81
73245;BME280;61460;41.158;-73.238;2023-02-26T04:34:31;101993.87;;;22.92;29.90
73245;BME280;61460;41.158;-73.238;2023-02-26T04:37:01;101989.94;;;22.70;29.74
73245;BME280;61460;41.158;-73.238;2023-02-26T04:39:32;101988.48;;;22.73;29.38
73245;BME280;61460;41.158;-73.238;2023-02-26T04:42:02;101990.65;;;22.72;29.13
73245;BME280;61460;41.158;-73.238;2023-02-26T04:44:33;101986.05;;;22.70;29.37
73245;BME280;61460;41.158;-73.238;2023-02-26T04:47:03;101986.87;;;22.50;29.79
73245;BME280;61460;41.158;-73.238;2023-02-26T04:49:34;102001.64;;;22.76;29.73
73245;BME280;61460;41.158;-73.238;2023-02-26T04:52:05;102001.23;;;22.85;30.04
73245;BME280;61460;41.158;-73.238;2023-02-26T04:54:35;101994.51;;;22.75;29.67
73245;BME280;61460;41.158;-73.238;2023-02-26T04:57:07;101996.75;;;22.67;29.31
73245;BME280;61460;41.158;-73.238;2023-02-26T04:59:38;101985.15;;;22.61;29.23
73245;BME280;61460;41.158;-73.238;2023-02-26T05:02:07;101985.79;;;22.70;29.15
73245;BME280;61460;41.158;-73.238;2023-02-26T05:04:38;101981.39;;;22.80;29.52
73245;BME280;61460;41.158;-73.238;2023-02-26T05:07:09;101971.70;;;22.78;29.61
73245;BME280;61460;41.158;-73.238;2023-02-26T05:09:40;101963.24;;;22.86;29.42
73245;BME280;61460;41.158;-73.238;2023-02-26T05:12:10;101960.26;;;22.52;29.38
73245;BME280;61460;41.158;-73.238;2023-02-26T05:14:41;101964.46;;;22.54;29.10
73245;BME280;61460;41.158;-73.238;2023-02-26T05:17:12;101959.44;;;22.55;28.90
73245;BME280;61460;41.158;-73.238;2023-02-26T05:19:42;101960.98;;;22.44;29.45
73245;BME280;61460;41.158;-73.238;2023-02-26T05:22:13;101961.88;;;22.55;29.55
73245;BME280;61460;41.158;-73.238;2023-02-26T05:24:44;101970.26;;;22.74;30.06
73245;BME280;61460;41.158;-73.238;2023-02-26T05:27:14;101967.66;;;22.80;29.86
73245;BME280;61460;41.158;-73.238;2023-02-26T05:29:45;101964.95;;;22.60;29.33
73245;BME280;61460;41.158;-73.238;2023-02-26T05:32:15;101955.73;;;22.58;29.08
73245;BME280;61460;41.158;-73.238;2023-02-26T05:34:46;101958.32;;;22.57;28.97
73245;BME280;61460;41.158;-73.238;2023-02-26T05:37:18;101958.62;;;22.77;29.12
73245;BME280;61460;41.158;-73.238;2023-02-26T05:39:47;101958.94;;;22.84;29.19
73245;BME280;61460;41.158;-73.238;2023-02-26T05:42:18;101954.60;;;22.83;29.19
73245;BME280;61460;41.158;-73.238;2023-02-26T05:44:49;101942.14;;;22.61;29.17
73245;BME280;61460;41.158;-73.238;2023-02-26T05:47:19;101934.34;;;22.51;29.05
73245;BME280;61460;41.158;-73.238;2023-02-26T05:49:50;101929.81;;;22.44;28.90
73245;BME280;61460;41.158;-73.238;2023-02-26T05:52:21;101921.72;;;22.58;28.83
73245;BME280;61460;41.158;-73.238;2023-02-26T05:54:52;101915.35;;;22.71;28.92
73245;BME280;61460;41.158;-73.238;2023-02-26T05:57:23;101917.54;;;22.79;28.83
73245;BME280;61460;41.158;-73.238;2023-02-26T05:59:53;101917.38;;;22.75;29.11
73245;BME280;61460;41.158;-73.238;2023-02-26T06:02:23;101905.59;;;22.67;28.85
73245;BME280;61460;41.158;-73.238;2023-02-26T06:04:54;101903.93;;;22.45;28.99
73245;BME280;61460;41.158;-73.238;2023-02-26T06:07:25;101901.53;;;22.66;28.56
73245;BME280;61460;41.158;-73.238;2023-02-26T06:09:55;101897.69;;;22.50;28.85
73245;BME280;61460;41.158;-73.238;2023-02-26T06:12:26;101890.21;;;22.58;28.39
73245;BME280;61460;41.158;-73.238;2023-02-26T06:14:57;101885.40;;;22.60;28.73
73245;BME280;61460;41.158;-73.238;2023-02-26T06:17:28;101888.19;;;22.74;28.81
73245;BME280;61460;41.158;-73.238;2023-02-26T06:19:58;101883.65;;;22.80;28.88
73245;BME280;61460;41.158;-73.238;2023-02-26T06:22:29;101884.44;;;22.61;28.87
73245;BME280;61460;41.158;-73.238;2023-02-26T06:24:59;101883.61;;;22.47;28.73
73245;BME280;61460;41.158;-73.238;2023-02-26T06:27:30;101883.95;;;22.48;28.57
73245;BME280;61460;41.158;-73.238;2023-02-26T06:30:01;101882.58;;;22.55;28.53
73245;BME280;61460;41.158;-73.238;2023-02-26T06:32:32;101889.42;;;22.41;28.81
73245;BME280;61460;41.158;-73.238;2023-02-26T06:35:03;101891.54;;;22.47;29.10
73245;BME280;61460;41.158;-73.238;2023-02-26T06:37:33;101884.62;;;22.75;28.98
73245;BME280;61460;41.158;-73.238;2023-02-26T06:40:05;101864.63;;;22.57;29.02
73245;BME280;61460;41.158;-73.238;2023-02-26T06:42:34;101858.92;;;22.56;28.68
73245;BME280;61460;41.158;-73.238;2023-02-26T06:45:06;101851.87;;;22.47;28.65
73245;BME280;61460;41.158;-73.238;2023-02-26T06:47:35;101852.03;;;22.49;28.47
73245;BME280;61460;41.158;-73.238;2023-02-26T06:50:08;101849.11;;;22.62;28.53
73245;BME280;61460;41.158;-73.238;2023-02-26T06:52:37;101836.22;;;22.79;28.55
73245;BME280;61460;41.158;-73.238;2023-02-26T06:55:08;101838.04;;;22.76;28.46
73245;BME280;61460;41.158;-73.238;2023-02-26T06:57:38;101837.25;;;22.59;28.63
73245;BME280;61460;41.158;-73.238;2023-02-26T07:00:10;101831.29;;;22.54;28.36
73245;BME280;61460;41.158;-73.238;2023-02-26T07:02:39;101823.08;;;22.46;28.37
73245;BME280;61460;41.158;-73.238;2023-02-26T07:05:10;101817.01;;;22.42;28.42
73245;BME280;61460;41.158;-73.238;2023-02-26T07:07:41;101813.87;;;22.47;28.63
73245;BME280;61460;41.158;-73.238;2023-02-26T07:10:12;101812.65;;;22.52;28.80
73245;BME280;61460;41.158;-73.238;2023-02-26T07:12:42;101811.20;;;22.64;29.27
73245;BME280;61460;41.158;-73.238;2023-02-26T07:15:13;101799.44;;;22.73;28.64
73245;BME280;61460;41.158;-73.238;2023-02-26T07:17:43;101796.52;;;22.52;28.56
73245;BME280;61460;41.158;-73.238;2023-02-26T07:20:14;101803.23;;;22.47;28.41
73245;BME280;61460;41.158;-73.238;2023-02-26T07:22:45;101791.92;;;22.45;28.33
73245;BME280;61460;41.158;-73.238;2023-02-26T07:25:15;101791.56;;;22.53;28.37
73245;BME280;61460;41.158;-73.238;2023-02-26T07:27:46;101787.24;;;22.75;28.31
73245;BME280;61460;41.158;-73.238;2023-02-26T07:30:17;101781.21;;;22.73;28.56
73245;BME280;61460;41.158;-73.238;2023-02-26T07:32:47;101770.02;;;22.58;28.47
73245;BME280;61460;41.158;-73.238;2023-02-26T07:35:18;101757.31;;;22.50;28.31
73245;BME280;61460;41.158;-73.238;2023-02-26T07:37:49;101750.61;;;22.48;28.17
73245;BME280;61460;41.158;-73.238;2023-02-26T07:40:19;101750.77;;;22.53;27.87
73245;BME280;61460;41.158;-73.238;2023-02-26T07:42:50;101741.09;;;22.41;28.27
73245;BME280;61460;41.158;-73.238;2023-02-26T07:45:20;101738.63;;;22.42;28.52
73245;BME280;61460;41.158;-73.238;2023-02-26T07:47:52;101737.19;;;22.56;28.55
73245;BME280;61460;41.158;-73.238;2023-02-26T07:50:22;101731.70;;;22.57;28.49
73245;BME280;61460;41.158;-73.238;2023-02-26T07:52:52;101729.82;;;22.47;28.27
73245;BME280;61460;41.158;-73.238;2023-02-26T07:55:23;101725.59;;;22.56;28.02
73245;BME280;61460;41.158;-73.238;2023-02-26T07:57:54;101727.98;;;22.45;27.95
73245;BME280;61460;41.158;-73.238;2023-02-26T08:00:24;101727.29;;;22.58;27.99
73245;BME280;61460;41.158;-73.238;2023-02-26T08:02:55;101720.25;;;22.73;28.04
73245;BME280;61460;41.158;-73.238;2023-02-26T08:05:26;101716.11;;;22.71;28.07
73245;BME280;61460;41.158;-73.238;2023-02-26T08:07:56;101715.86;;;22.57;28.03
73245;BME280;61460;41.158;-73.238;2023-02-26T08:10:27;101714.36;;;22.51;27.87
73245;BME280;61460;41.158;-73.238;2023-02-26T08:12:58;101714.21;;;22.47;27.79
73245;BME280;61460;41.158;-73.238;2023-02-26T08:15:28;101711.81;;;22.38;27.82
73245;BME280;61460;41.158;-73.238;2023-02-26T08:17:59;101710.11;;;22.09;28.58
73245;BME280;61460;41.158;-73.238;2023-02-26T08:20:30;101707.60;;;22.39;28.55
73245;BME280;61460;41.158;-73.238;2023-02-26T08:23:00;101711.85;;;22.69;28.50
73245;BME280;61460;41.158;-73.238;2023-02-26T08:25:31;101705.07;;;22.57;28.43
73245;BME280;61460;41.158;-73.238;2023-02-26T08:28:01;101703.11;;;22.51;28.05
73245;BME280;61460;41.158;-73.238;2023-02-26T08:30:32;101697.59;;;22.34;28.15
73245;BME280;61460;41.158;-73.238;2023-02-26T08:33:03;101697.80;;;22.39;27.88
73245;BME280;61460;41.158;-73.238;2023-02-26T08:35:33;101699.83;;;22.52;27.80
73245;BME280;61460;41.158;-73.238;2023-02-26T08:38:04;101690.53;;;22.67;27.96
73245;BME280;61460;41.158;-73.238;2023-02-26T08:40:35;101688.26;;;22.68;28.02
73245;BME280;61460;41.158;-73.238;2023-02-26T08:43:05;101693.50;;;22.46;28.11
73245;BME280;61460;41.158;-73.238;2023-02-26T08:45:36;101693.12;;;22.49;27.76
73245;BME280;61460;41.158;-73.238;2023-02-26T08:48:07;101698.32;;;22.43;27.69
73245;BME280;61460;41.158;-73.238;2023-02-26T08:50:38;101699.99;;;22.42;27.58
73245;BME280;61460;41.158;-73.238;2023-02-26T08:53:08;101709.76;;;22.42;27.68
73245;BME280;61460;41.158;-73.238;2023-02-26T08:55:39;101711.18;;;22.38;28.04
73245;BME280;61460;41.158;-73.238;2023-02-26T08:58:09;101718.59;;;22.41;28.29
73245;BME280;61460;41.158;-73.238;2023-02-26T09:00:40;101718.22;;;22.53;28.09
73245;BME280;61460;41.158;-73.238;2023-02-26T09:03:11;101708.18;;;22.35;28.02
73245;BME280;61460;41.158;-73.238;2023-02-26T09:05:41;101702.51;;;22.38;27.86
73245;BME280;61460;41.158;-73.238;2023-02-26T09:08:12;101700.55;;;22.30;27.78
73245;BME280;61460;41.158;-73.238;2023-02-26T09:10:43;101716.02;;;22.52;27.64
73245;BME280;61460;41.158;-73.238;2023-02-26T09:13:14;101716.08;;;22.56;28.00
73245;BME280;61460;41.158;-73.238;2023-02-26T09:15:44;101717.96;;;22.56;28.21
73245;BME280;61460;41.158;-73.238;2023-02-26T09:18:15;101703.83;;;22.40;27.92
73245;BME280;61460;41.158;-73.238;2023-02-26T09:20:45;101703.82;;;22.33;27.72
73245;BME280;61460;41.158;-73.238;2023-02-26T09:23:16;101705.18;;;22.36;27.55
73245;BME280;61460;41.158;-73.238;2023-02-26T09:25:51;101702.10;;;22.48;27.38
73245;BME280;61460;41.158;-73.238;2023-02-26T09:28:17;101698.19;;;22.19;28.09
73245;BME280;61460;41.158;-73.238;2023-02-26T09:30:51;101699.18;;;22.44;28.91
73245;BME280;61460;41.158;-73.238;2023-02-26T09:33:19;101694.40;;;22.64;28.05
73245;BME280;61460;41.158;-73.238;2023-02-26T09:35:50;101693.11;;;22.37;28.06
73245;BME280;61460;41.158;-73.238;2023-02-26T09:38:20;101692.84;;;22.27;27.93
73245;BME280;61460;41.158;-73.238;2023-02-26T09:40:55;101698.13;;;22.26;27.76
73245;BME280;61460;41.158;-73.238;2023-02-26T09:43:29;101702.27;;;22.38;27.47
73245;BME280;61460;41.158;-73.238;2023-02-26T09:45:55;101705.97;;;22.50;27.56
73245;BME280;61460;41.158;-73.238;2023-02-26T09:48:23;101705.67;;;22.60;27.56
73245;BME280;61460;41.158;-73.238;2023-02-26T09:50:56;101700.41;;;22.63;27.71
73245;BME280;61460;41.158;-73.238;2023-02-26T09:53:27;101696.05;;;22.37;27.76
73245;BME280;61460;41.158;-73.238;2023-02-26T09:55:58;101695.55;;;22.36;27.57
73245;BME280;61460;41.158;-73.238;2023-02-26T09:58:29;101696.93;;;22.32;27.39
73245;BME280;61460;41.158;-73.238;2023-02-26T10:01:03;101699.09;;;22.39;27.31
73245;BME280;61460;41.158;-73.238;2023-02-26T10:03:30;101704.93;;;22.11;27.94
73245;BME280;61460;41.158;-73.238;2023-02-26T10:08:33;101701.20;;;22.59;28.07
73245;BME280;61460;41.158;-73.238;2023-02-26T10:11:04;101692.80;;;22.41;27.96
73245;BME280;61460;41.158;-73.238;2023-02-26T10:13:35;101680.15;;;22.41;27.54
73245;BME280;61460;41.158;-73.238;2023-02-26T10:16:04;101688.08;;;22.32;27.47
73245;BME280;61460;41.158;-73.238;2023-02-26T10:18:34;101691.16;;;22.33;27.33
73245;BME280;61460;41.158;-73.238;2023-02-26T10:21:05;101693.28;;;22.43;27.29
73245;BME280;61460;41.158;-73.238;2023-02-26T10:23:38;101693.50;;;22.51;27.56
73245;BME280;61460;41.158;-73.238;2023-02-26T10:26:10;101687.69;;;22.48;27.68
73245;BME280;61460;41.158;-73.238;2023-02-26T10:28:44;101678.19;;;22.41;27.47
73245;BME280;61460;41.158;-73.238;2023-02-26T10:31:10;101672.01;;;22.35;27.27
73245;BME280;61460;41.158;-73.238;2023-02-26T10:33:39;101673.98;;;22.30;27.20
73245;BME280;61460;41.158;-73.238;2023-02-26T10:36:15;101677.41;;;22.21;27.33
73245;BME280;61460;41.158;-73.238;2023-02-26T10:38:36;101682.78;;;22.11;27.66
73245;BME280;61460;41.158;-73.238;2023-02-26T10:41:11;101689.51;;;22.31;28.21
73245;BME280;61460;41.158;-73.238;2023-02-26T10:43:39;101687.96;;;22.45;27.84
73245;BME280;61460;41.158;-73.238;2023-02-26T10:46:18;101679.00;;;22.29;27.70
73245;BME280;61460;41.158;-73.238;2023-02-26T10:48:50;101676.12;;;22.30;27.43
73245;BME280;61460;41.158;-73.238;2023-02-26T10:51:15;101672.29;;;22.29;27.21
73245;BME280;61460;41.158;-73.238;2023-02-26T10:53:44;101670.18;;;22.32;27.16
73245;BME280;61460;41.158;-73.238;2023-02-26T10:56:14;101663.97;;;22.43;27.46
73245;BME280;61460;41.158;-73.238;2023-02-26T10:58:41;101661.77;;;22.45;27.28
73245;BME280;61460;41.158;-73.238;2023-02-26T11:01:16;101665.46;;;22.50;27.38
73245;BME280;61460;41.158;-73.238;2023-02-26T11:03:45;101671.60;;;22.25;27.47
73245;BME280;61460;41.158;-73.238;2023-02-26T11:06:20;101666.03;;;22.22;27.29
73245;BME280;61460;41.158;-73.238;2023-02-26T11:08:46;101653.31;;;22.22;27.24
73245;BME280;61460;41.158;-73.238;2023-02-26T11:13:46;101634.02;;;22.06;27.67
73245;BME280;61460;41.158;-73.238;2023-02-26T11:16:16;101644.15;;;22.35;27.86
73245;BME280;61460;41.158;-73.238;2023-02-26T11:18:49;101638.89;;;22.46;27.87
73245;BME280;61460;41.158;-73.238;2023-02-26T11:21:18;101621.74;;;22.28;27.66
73245;BME280;61460;41.158;-73.238;2023-02-26T11:23:49;101608.83;;;22.30;27.23
73245;BME280;61460;41.158;-73.238;2023-02-26T11:26:19;101614.92;;;22.19;27.24
73245;BME280;61460;41.158;-73.238;2023-02-26T11:28:53;101630.96;;;22.26;27.13
73245;BME280;61460;41.158;-73.238;2023-02-26T11:31:22;101642.07;;;22.40;27.53
73245;BME280;61460;41.158;-73.238;2023-02-26T11:33:52;101631.71;;;22.48;27.58
73245;BME280;61460;41.158;-73.238;2023-02-26T11:36:23;101628.47;;;22.48;27.53
73245;BME280;61460;41.158;-73.238;2023-02-26T11:38:54;101623.90;;;22.19;27.36
73245;BME280;61460;41.158;-73.238;2023-02-26T11:41:23;101634.64;;;22.23;27.19
73245;BME280;61460;41.158;-73.238;2023-02-26T11:43:59;101638.33;;;22.27;27.05
73245;BME280;61460;41.158;-73.238;2023-02-26T11:46:24;101636.42;;;22.28;26.94
73245;BME280;61460;41.158;-73.238;2023-02-26T11:48:57;101634.95;;;22.23;27.38
73245;BME280;61460;41.158;-73.238;2023-02-26T11:51:27;101624.39;;;22.32;27.45
73245;BME280;61460;41.158;-73.238;2023-02-26T11:53:57;101615.79;;;22.37;28.34
73245;BME280;61460;41.158;-73.238;2023-02-26T11:56:30;101590.12;;;22.27;27.68
73245;BME280;61460;41.158;-73.238;2023-02-26T11:59:01;101576.72;;;22.28;27.37
73245;BME280;61460;41.158;-73.238;2023-02-26T12:01:29;101579.09;;;22.28;27.15
73245;BME280;61460;41.158;-73.238;2023-02-26T12:04:01;101593.09;;;22.39;26.98
73245;BME280;61460;41.158;-73.238;2023-02-26T12:06:30;101611.74;;;22.40;27.48
73245;BME280;61460;41.158;-73.238;2023-02-26T12:09:00;101626.52;;;22.37;27.87
73245;BME280;61460;41.158;-73.238;2023-02-26T12:11:42;101621.16;;;22.53;27.52
73245;BME280;61460;41.158;-73.238;2023-02-26T12:14:10;101620.68;;;22.43;27.37
73245;BME280;61460;41.158;-73.238;2023-02-26T12:16:36;101622.80;;;22.36;27.12
73245;BME280;61460;41.158;-73.238;2023-02-26T12:19:07;101609.40;;;22.30;27.09
73245;BME280;61460;41.158;-73.238;2023-02-26T12:21:46;101610.18;;;22.34;27.03
73245;BME280;61460;41.158;-73.238;2023-02-26T12:24:16;101610.94;;;22.34;27.56
73245;BME280;61460;41.158;-73.238;2023-02-26T12:26:40;101601.79;;;22.46;27.86
73245;BME280;61460;41.158;-73.238;2023-02-26T12:29:15;101598.86;;;22.49;28.91
73245;BME280;61460;41.158;-73.238;2023-02-26T12:31:44;101598.97;;;22.56;29.42
73245;BME280;61460;41.158;-73.238;2023-02-26T12:34:23;101597.72;;;22.45;28.66
73245;BME280;61460;41.158;-73.238;2023-02-26T12:36:49;101594.34;;;22.36;28.92
73245;BME280;61460;41.158;-73.238;2023-02-26T12:39:16;101581.93;;;22.48;29.52
73245;BME280;61460;41.158;-73.238;2023-02-26T12:41:47;101578.29;;;22.51;29.61
73245;BME280;61460;41.158;-73.238;2023-02-26T12:44:19;101584.16;;;22.49;29.60
73245;BME280;61460;41.158;-73.238;2023-02-26T12:46:51;101561.27;;;22.57;29.52
73245;BME280;61460;41.158;-73.238;2023-02-26T12:49:26;101546.20;;;22.54;29.86
73245;BME280;61460;41.158;-73.238;2023-02-26T12:51:51;101537.18;;;22.33;29.95
73245;BME280;61460;41.158;-73.238;2023-02-26T12:54:23;101531.63;;;22.25;30.14
73245;BME280;61460;41.158;-73.238;2023-02-26T12:56:57;101531.88;;;22.45;30.35
73245;BME280;61460;41.158;-73.238;2023-02-26T12:59:23;101535.64;;;22.51;30.21
73245;BME280;61460;41.158;-73.238;2023-02-26T13:01:53;101539.58;;;22.60;30.08